createdAt,value
2019-03-18T00:00:12.423Z,100254.45
2019-03-18T00:02:40.738Z,100257.17
2019-03-18T00:05:09.082Z,100260.40
2019-03-18T00:07:37.374Z,100264.65
2019-03-18T00:10:07.419Z,100264.52
2019-03-18T00:12:35.700Z,100259.92
2019-03-18T00:15:05.951Z,100268.33
2019-03-18T00:17:34.515Z,100272.95
2019-03-18T00:20:02.924Z,100273.30
2019-03-18T00:22:31.233Z,100279.09
2019-03-18T00:24:59.537Z,100269.72
2019-03-18T00:27:28.140Z,100274.25
2019-03-18T00:29:56.462Z,100280.16
2019-03-18T00:32:25.218Z,100272.23
2019-03-18T00:34:53.784Z,100278.03
2019-03-18T00:37:22.110Z,100284.55
2019-03-18T00:39:50.644Z,100283.15
2019-03-18T00:42:18.949Z,100283.53
2019-03-18T00:44:47.230Z,100288.74
2019-03-18T00:47:15.538Z,100290.87
2019-03-18T00:49:43.836Z,100288.16
2019-03-18T00:52:12.136Z,100300.00
2019-03-18T00:54:40.429Z,100302.13
2019-03-18T00:57:08.753Z,100290.19
2019-03-18T00:59:37.103Z,100301.67
2019-03-18T01:02:05.410Z,100287.81
2019-03-18T01:04:34.011Z,100282.84
2019-03-18T01:07:02.309Z,100291.34
2019-03-18T01:09:30.612Z,100294.81
2019-03-18T01:11:58.972Z,100289.36
2019-03-18T01:14:27.357Z,100287.09
2019-03-18T01:16:55.650Z,100295.16
2019-03-18T01:19:24.287Z,100287.58
2019-03-18T01:21:52.941Z,100285.34
2019-03-18T01:24:21.564Z,100292.20
2019-03-18T01:26:50.140Z,100295.77
2019-03-18T01:29:18.434Z,100297.07
2019-03-18T01:31:46.732Z,100306.78
2019-03-18T01:34:15.373Z,100308.08
2019-03-18T01:36:43.671Z,100311.63
2019-03-18T01:39:11.970Z,100308.91
2019-03-18T01:41:40.744Z,100308.06
2019-03-18T01:44:09.127Z,100307.92
2019-03-18T01:46:37.444Z,100311.25
2019-03-18T01:49:05.813Z,100313.14
2019-03-18T01:51:34.367Z,100305.31
2019-03-18T01:54:02.651Z,100301.51
2019-03-18T01:56:31.051Z,100314.06
2019-03-18T01:58:59.351Z,100313.27
2019-03-18T02:01:27.712Z,100310.53
2019-03-18T02:03:56.010Z,100306.03
2019-03-18T02:06:24.326Z,100306.24
2019-03-18T02:08:52.631Z,100294.98
2019-03-18T02:11:20.913Z,100289.52
2019-03-18T02:13:49.216Z,100289.77
2019-03-18T02:16:17.511Z,100292.23
2019-03-18T02:18:45.809Z,100300.41
2019-03-18T02:21:14.365Z,100309.29
2019-03-18T02:23:42.678Z,100309.52
2019-03-18T02:26:10.962Z,100301.22
2019-03-18T02:28:39.354Z,100300.63
2019-03-18T02:31:07.643Z,100300.50
2019-03-18T02:33:36.370Z,100297.68
2019-03-18T02:36:04.958Z,100297.78
2019-03-18T02:38:33.254Z,100309.19
2019-03-18T02:41:01.664Z,100296.00
2019-03-18T02:43:30.404Z,100292.19
2019-03-18T02:46:09.999Z,100296.48
2019-03-18T02:48:28.736Z,100291.84
2019-03-18T02:50:58.534Z,100298.95
2019-03-18T02:53:26.810Z,100305.13
2019-03-18T02:55:55.107Z,100315.22
2019-03-18T02:58:23.650Z,100317.48
2019-03-18T03:00:51.975Z,100326.86
2019-03-18T03:03:20.265Z,100331.12
2019-03-18T03:05:48.601Z,100329.37
2019-03-18T03:08:16.891Z,100329.95
2019-03-18T03:10:45.528Z,100337.78
2019-03-18T03:13:13.825Z,100342.78
2019-03-18T03:15:42.111Z,100354.05
2019-03-18T03:18:10.696Z,100355.35
2019-03-18T03:20:39.001Z,100366.39
2019-03-18T03:23:07.317Z,100364.84
2019-03-18T03:25:35.617Z,100366.73
2019-03-18T03:28:03.938Z,100365.08
2019-03-18T03:30:32.241Z,100374.31
2019-03-18T03:33:00.551Z,100375.86
2019-03-18T03:35:28.958Z,100372.19
2019-03-18T03:37:57.220Z,100377.41
2019-03-18T03:40:25.514Z,100373.27
2019-03-18T03:42:54.181Z,100375.39
2019-03-18T03:45:22.463Z,100371.48
2019-03-18T03:47:50.795Z,100373.23
2019-03-18T03:50:19.111Z,100375.03
2019-03-18T03:52:47.777Z,100376.68
2019-03-18T03:55:16.074Z,100384.02
2019-03-18T03:57:45.065Z,100384.61
2019-03-18T04:00:16.716Z,100387.12
2019-03-18T04:02:45.178Z,100387.94
2019-03-18T04:05:13.457Z,100394.22
2019-03-18T04:07:41.914Z,100390.66
2019-03-18T04:10:12.858Z,100393.27
2019-03-18T04:12:41.466Z,100394.33
2019-03-18T04:15:11.396Z,100397.55
2019-03-18T04:17:39.729Z,100393.39
2019-03-18T04:20:13.726Z,100400.76
2019-03-18T04:22:42.048Z,100410.71
2019-03-18T04:25:10.415Z,100414.97
2019-03-18T04:27:38.731Z,100413.91
2019-03-18T04:30:12.158Z,100404.65
2019-03-18T04:32:40.426Z,100417.22
2019-03-18T04:35:08.926Z,100411.53
2019-03-18T04:37:37.241Z,100416.61
2019-03-18T04:40:07.782Z,100434.77
2019-03-18T04:42:36.095Z,100432.63
2019-03-18T04:45:06.239Z,100431.22
2019-03-18T04:47:34.651Z,100440.45
2019-03-18T04:50:03.237Z,100448.52
2019-03-18T04:52:31.555Z,100448.64
2019-03-18T04:54:59.951Z,100459.31
2019-03-18T04:57:28.242Z,100455.86
2019-03-18T04:59:56.561Z,100454.66
2019-03-18T05:02:24.912Z,100461.91
2019-03-18T05:04:53.251Z,100459.08
2019-03-18T05:07:21.546Z,100465.84
2019-03-18T05:09:50.135Z,100472.94
2019-03-18T05:12:18.425Z,100467.63
2019-03-18T05:14:46.760Z,100470.09
2019-03-18T05:17:26.093Z,100469.73
2019-03-18T05:19:45.072Z,100477.91
2019-03-18T05:22:13.764Z,100482.41
2019-03-18T05:24:42.074Z,100480.40
2019-03-18T05:27:10.385Z,100490.12
2019-03-18T05:29:38.678Z,100489.53
2019-03-18T05:32:06.991Z,100493.33
2019-03-18T05:34:35.286Z,100495.84
2019-03-18T05:37:03.680Z,100490.50
2019-03-18T05:39:32.220Z,100504.00
2019-03-18T05:42:00.646Z,100512.55
2019-03-18T05:44:28.966Z,100521.70
2019-03-18T05:46:57.282Z,100520.38
2019-03-18T05:49:25.572Z,100522.73
2019-03-18T05:51:53.878Z,100523.22
2019-03-18T05:54:22.478Z,100515.75
2019-03-18T05:56:50.800Z,100527.74
2019-03-18T05:59:19.437Z,100531.53
2019-03-18T06:01:47.737Z,100545.28
2019-03-18T06:04:16.491Z,100555.71
2019-03-18T06:06:44.785Z,100561.19
2019-03-18T06:09:13.097Z,100567.11
2019-03-18T06:11:41.373Z,100573.41
2019-03-18T06:14:09.696Z,100576.94
2019-03-18T06:16:37.987Z,100572.31
2019-03-18T06:19:06.293Z,100574.00
2019-03-18T06:21:34.585Z,100575.91
2019-03-18T06:24:02.910Z,100584.55
2019-03-18T06:26:31.513Z,100576.00
2019-03-18T06:28:59.855Z,100583.00
2019-03-18T06:31:28.138Z,100581.08
2019-03-18T06:33:56.473Z,100579.68
2019-03-18T06:36:24.772Z,100587.99
2019-03-18T06:38:53.086Z,100597.60
2019-03-18T06:41:21.457Z,100588.36
2019-03-18T06:43:49.746Z,100591.10
2019-03-18T06:46:18.068Z,100597.03
2019-03-18T06:48:46.395Z,100600.58
2019-03-18T06:51:14.726Z,100610.53
2019-03-18T06:53:43.270Z,100606.86
2019-03-18T06:56:11.579Z,100611.84
2019-03-18T06:58:39.869Z,100613.14
2019-03-18T07:01:08.202Z,100624.42
2019-03-18T07:03:36.774Z,100626.20
2019-03-18T07:06:05.081Z,100631.42
2019-03-18T07:08:33.389Z,100635.12
2019-03-18T07:11:01.706Z,100643.52
2019-03-18T07:13:30.010Z,100641.86
2019-03-18T07:16:00.104Z,100654.92
2019-03-18T07:18:28.563Z,100661.80
2019-03-18T07:20:58.563Z,100661.46
2019-03-18T07:23:26.857Z,100666.45
2019-03-18T07:25:55.162Z,100669.76
2019-03-18T07:28:23.480Z,100669.66
2019-03-18T07:30:51.772Z,100676.67
2019-03-18T07:33:20.391Z,100685.79
2019-03-18T07:35:48.687Z,100694.91
2019-03-18T07:38:17.023Z,100702.11
2019-03-18T07:40:45.306Z,100708.84
2019-03-18T07:43:14.828Z,100710.06
2019-03-18T07:45:43.131Z,100715.00
2019-03-18T07:48:12.669Z,100709.62
2019-03-18T07:50:41.039Z,100722.56
2019-03-18T07:53:09.349Z,100717.03
2019-03-18T07:55:37.659Z,100720.52
2019-03-18T07:58:05.970Z,100721.98
2019-03-18T08:00:34.277Z,100729.43
2019-03-18T08:03:03.585Z,100727.69
2019-03-18T08:05:31.970Z,100727.42
2019-03-18T08:08:00.290Z,100727.52
2019-03-18T08:10:28.623Z,100730.14
2019-03-18T08:12:56.926Z,100728.56
2019-03-18T08:15:25.233Z,100738.23
2019-03-18T08:17:53.596Z,100745.83
2019-03-18T08:20:21.907Z,100746.96
2019-03-18T08:22:50.235Z,100755.80
2019-03-18T08:25:18.520Z,100758.83
2019-03-18T08:27:47.118Z,100757.39
2019-03-18T08:30:17.119Z,100768.41
2019-03-18T08:32:45.777Z,100776.77
2019-03-18T08:35:14.090Z,100767.30
2019-03-18T08:37:42.412Z,100773.77
2019-03-18T08:40:13.494Z,100767.28
2019-03-18T08:42:41.794Z,100772.52
2019-03-18T08:45:11.870Z,100768.13
2019-03-18T08:47:40.169Z,100773.83
2019-03-18T08:50:12.281Z,100776.13
2019-03-18T08:52:40.293Z,100783.61
2019-03-18T08:55:09.972Z,100786.89
2019-03-18T08:57:38.280Z,100795.00
2019-03-18T09:00:12.385Z,100788.86
2019-03-18T09:02:40.689Z,100796.75
2019-03-18T09:05:09.651Z,100785.74
2019-03-18T09:07:38.093Z,100797.88
2019-03-18T09:10:09.918Z,100793.85
2019-03-18T09:12:38.196Z,100810.42
2019-03-18T09:15:08.553Z,100809.63
2019-03-18T09:17:36.854Z,100811.80
2019-03-18T09:20:08.624Z,100817.58
2019-03-18T09:22:36.927Z,100822.01
2019-03-18T09:25:07.176Z,100826.50
2019-03-18T09:27:35.808Z,100826.47
2019-03-18T09:30:06.748Z,100823.98
2019-03-18T09:32:35.348Z,100838.61
2019-03-18T09:35:04.462Z,100827.88
2019-03-18T09:37:33.113Z,100832.97
2019-03-18T09:40:01.421Z,100830.94
2019-03-18T09:42:29.704Z,100841.04
2019-03-18T09:44:58.035Z,100843.20
2019-03-18T09:47:26.348Z,100841.22
2019-03-18T09:49:54.695Z,100841.98
2019-03-18T09:52:23.060Z,100849.83
2019-03-18T09:54:51.661Z,100847.61
2019-03-18T09:57:25.787Z,100858.28
2019-03-18T09:59:50.061Z,100853.79
2019-03-18T10:02:18.454Z,100850.64
2019-03-18T10:04:46.753Z,100849.57
2019-03-18T10:07:15.072Z,100852.44
2019-03-18T10:09:43.447Z,100860.91
2019-03-18T10:12:11.840Z,100859.20
2019-03-18T10:14:40.138Z,100861.34
2019-03-18T10:17:10.003Z,100868.21
2019-03-18T10:19:38.559Z,100875.55
2019-03-18T10:22:06.895Z,100874.33
2019-03-18T10:24:35.242Z,100874.60
2019-03-18T10:27:03.835Z,100884.63
2019-03-18T10:29:32.231Z,100890.34
2019-03-18T10:32:00.527Z,100889.45
2019-03-18T10:34:28.844Z,100881.02
2019-03-18T10:36:57.125Z,100887.39
2019-03-18T10:39:25.762Z,100882.89
2019-03-18T10:41:54.062Z,100899.06
2019-03-18T10:44:22.453Z,100894.30
2019-03-18T10:46:50.852Z,100893.19
2019-03-18T10:49:19.149Z,100891.57
2019-03-18T10:51:48.397Z,100889.09
2019-03-18T10:54:16.818Z,100900.25
2019-03-18T10:56:45.157Z,100903.99
2019-03-18T10:59:13.466Z,100906.36
2019-03-18T11:01:41.791Z,100906.87
2019-03-18T11:04:10.078Z,100906.05
2019-03-18T11:06:38.397Z,100897.63
2019-03-18T11:09:06.948Z,100902.50
2019-03-18T11:11:35.282Z,100891.79
2019-03-18T11:14:03.575Z,100893.91
2019-03-18T11:16:32.268Z,100892.18
2019-03-18T11:19:00.863Z,100893.63
2019-03-18T11:21:29.268Z,100901.95
2019-03-18T11:23:57.902Z,100897.16
2019-03-18T11:26:26.217Z,100905.72
2019-03-18T11:28:54.583Z,100910.38
2019-03-18T11:31:22.912Z,100918.05
2019-03-18T11:33:51.198Z,100918.87
2019-03-18T11:36:19.641Z,100924.06
2019-03-18T11:38:47.954Z,100925.09
2019-03-18T11:41:17.531Z,100932.75
2019-03-18T11:43:46.283Z,100922.39
2019-03-18T11:46:14.585Z,100932.78
2019-03-18T11:48:42.889Z,100928.73
2019-03-18T11:51:11.202Z,100928.83
2019-03-18T11:53:39.769Z,100938.78
2019-03-18T11:56:08.076Z,100932.48
2019-03-18T11:58:36.381Z,100944.25
2019-03-18T12:01:05.035Z,100942.84
2019-03-18T12:03:33.343Z,100945.32
2019-03-18T12:06:01.710Z,100950.75
2019-03-18T12:08:30.035Z,100954.83
2019-03-18T12:11:01.115Z,100949.66
2019-03-18T12:13:29.418Z,100967.71
2019-03-18T12:15:57.723Z,100958.23
2019-03-18T12:18:26.289Z,100970.34
2019-03-18T12:20:54.595Z,100965.59
2019-03-18T12:23:22.909Z,100973.37
2019-03-18T12:25:51.225Z,100959.26
2019-03-18T12:28:19.540Z,100974.01
2019-03-18T12:30:48.125Z,100959.14
2019-03-18T12:33:16.464Z,100960.16
2019-03-18T12:35:44.742Z,100952.09
2019-03-18T12:38:13.055Z,100957.30
2019-03-18T12:40:41.340Z,100950.05
2019-03-18T12:43:09.655Z,100958.28
2019-03-18T12:45:37.952Z,100956.92
2019-03-18T12:48:06.258Z,100966.52
2019-03-18T12:50:54.450Z,100959.75
2019-03-18T12:53:05.050Z,100948.30
2019-03-18T12:55:33.348Z,100953.34
2019-03-18T12:58:01.633Z,100951.98
2019-03-18T13:00:35.003Z,100946.87
2019-03-18T13:03:03.369Z,100952.39
2019-03-18T13:05:32.085Z,100952.61
2019-03-18T13:08:00.396Z,100960.75
2019-03-18T13:10:29.054Z,100962.95
2019-03-18T13:12:57.457Z,100961.72
2019-03-18T13:15:25.859Z,100952.19
2019-03-18T13:17:54.168Z,100960.66
2019-03-18T13:20:23.437Z,100962.18
2019-03-18T13:22:54.002Z,100969.71
2019-03-18T13:25:21.753Z,100972.27
2019-03-18T13:27:50.073Z,100975.66
2019-03-18T13:30:25.358Z,100968.03
2019-03-18T13:32:53.928Z,100974.02
2019-03-18T13:35:22.563Z,100976.74
2019-03-18T13:37:50.878Z,100981.42
2019-03-18T13:40:19.955Z,101001.87
2019-03-18T13:42:48.470Z,101013.33
2019-03-18T13:45:23.874Z,101011.61
2019-03-18T13:47:52.177Z,101004.88
2019-03-18T13:50:21.342Z,100994.50
2019-03-18T13:52:49.907Z,100997.93
2019-03-18T13:55:18.450Z,101001.27
2019-03-18T13:57:47.096Z,100997.69
2019-03-18T14:00:16.818Z,101003.14
2019-03-18T14:02:45.119Z,101001.36
2019-03-18T14:05:13.905Z,101002.75
2019-03-18T14:07:42.531Z,101006.95
2019-03-18T14:10:18.394Z,101000.94
2019-03-18T14:12:46.958Z,101002.52
2019-03-18T14:15:16.681Z,101007.66
2019-03-18T14:17:44.988Z,101006.75
2019-03-18T14:20:18.466Z,101013.27
2019-03-18T14:22:46.999Z,101015.36
2019-03-18T14:25:15.379Z,101016.25
2019-03-18T14:27:44.002Z,101013.76
2019-03-18T14:30:16.713Z,101015.78
2019-03-18T14:32:45.277Z,101023.73
2019-03-18T14:35:14.227Z,101024.89
2019-03-18T14:37:42.816Z,101020.45
2019-03-18T14:40:13.108Z,101024.22
2019-03-18T14:42:41.395Z,101029.82
2019-03-18T14:45:12.765Z,101036.25
2019-03-18T14:47:41.076Z,101040.56
2019-03-18T14:50:11.335Z,101066.00
2019-03-18T14:52:39.645Z,101067.42
2019-03-18T14:55:10.614Z,101084.69
2019-03-18T14:57:38.892Z,101090.31
2019-03-18T15:00:24.932Z,101114.42
2019-03-18T15:02:59.491Z,101139.04
2019-03-18T15:05:27.816Z,101132.21
2019-03-18T15:07:56.188Z,101126.28
2019-03-18T15:10:28.109Z,101129.52
2019-03-18T15:12:56.398Z,101128.27
2019-03-18T15:15:24.694Z,101112.22
2019-03-18T15:17:52.988Z,101100.80
2019-03-18T15:20:23.479Z,101101.39
2019-03-18T15:22:51.818Z,101103.05
2019-03-18T15:25:28.758Z,101104.22
2019-03-18T15:27:57.421Z,101098.83
2019-03-18T15:30:25.704Z,101101.68
2019-03-18T15:32:54.018Z,101098.28
2019-03-18T15:35:22.389Z,101101.83
2019-03-18T15:37:50.702Z,101111.09
2019-03-18T15:40:20.435Z,101108.34
2019-03-18T15:42:49.126Z,101108.11
2019-03-18T15:45:18.355Z,101106.09
2019-03-18T15:47:46.687Z,101107.78
2019-03-18T15:50:20.005Z,101113.36
2019-03-18T15:52:48.521Z,101118.48
2019-03-18T15:55:16.857Z,101110.17
2019-03-18T15:57:45.443Z,101117.22
2019-03-18T16:00:28.995Z,101127.72
2019-03-18T16:02:57.291Z,101118.06
2019-03-18T16:05:25.848Z,101120.09
2019-03-18T16:07:54.399Z,101128.55
2019-03-18T16:10:22.713Z,101127.56
2019-03-18T16:12:51.012Z,101139.40
2019-03-18T16:15:19.468Z,101137.84
2019-03-18T16:17:47.835Z,101146.72
2019-03-18T16:20:23.586Z,101143.34
2019-03-18T16:22:51.988Z,101148.02
2019-03-18T16:25:20.376Z,101149.40
2019-03-18T16:27:48.667Z,101156.70
2019-03-18T16:30:20.700Z,101162.28
2019-03-18T16:32:48.984Z,101168.14
2019-03-18T16:35:17.724Z,101174.83
2019-03-18T16:37:46.502Z,101172.78
2019-03-18T16:40:17.365Z,101176.41
2019-03-18T16:42:45.672Z,101182.11
2019-03-18T16:45:17.776Z,101179.05
2019-03-18T16:47:46.080Z,101187.09
2019-03-18T16:50:27.933Z,101193.96
2019-03-18T16:52:56.219Z,101199.72
2019-03-18T16:55:24.530Z,101203.45
2019-03-18T16:57:52.830Z,101205.57
2019-03-18T17:00:27.964Z,101204.53
2019-03-18T17:02:56.290Z,101207.27
2019-03-18T17:05:24.575Z,101208.12
2019-03-18T17:07:54.425Z,101217.80
2019-03-18T17:10:22.977Z,101212.55
2019-03-18T17:12:51.576Z,101223.41
2019-03-18T17:15:20.904Z,101218.53
2019-03-18T17:17:49.213Z,101225.08
2019-03-18T17:20:17.789Z,101229.38
2019-03-18T17:22:50.366Z,101232.50
2019-03-18T17:25:21.493Z,101235.69
2019-03-18T17:27:50.164Z,101235.22
2019-03-18T17:30:19.516Z,101237.84
2019-03-18T17:32:48.087Z,101238.55
2019-03-18T17:35:16.456Z,101244.50
2019-03-18T17:37:44.821Z,101254.01
2019-03-18T17:40:18.421Z,101261.63
2019-03-18T17:42:46.719Z,101271.25
2019-03-18T17:45:18.885Z,101267.42
2019-03-18T17:47:47.198Z,101273.85
2019-03-18T17:50:23.912Z,101279.92
2019-03-18T17:53:02.464Z,101279.70
2019-03-18T17:55:22.256Z,101284.58
2019-03-18T17:57:50.542Z,101292.92
2019-03-18T18:00:20.998Z,101287.20
2019-03-18T18:02:49.298Z,101288.77
2019-03-18T18:05:17.608Z,101298.51
2019-03-18T18:07:46.169Z,101298.28
2019-03-18T18:10:14.816Z,101309.81
2019-03-18T18:12:43.104Z,101312.56
2019-03-18T18:15:11.987Z,101306.59
2019-03-18T18:17:40.554Z,101313.14
2019-03-18T18:20:10.789Z,101317.55
2019-03-18T18:22:41.023Z,101321.86
2019-03-18T18:25:13.344Z,101317.67
2019-03-18T18:27:41.962Z,101324.96
2019-03-18T18:30:12.340Z,101331.38
2019-03-18T18:32:40.640Z,101332.09
2019-03-18T18:35:12.800Z,101326.59
2019-03-18T18:37:41.262Z,101322.89
2019-03-18T18:40:18.688Z,101330.13
2019-03-18T18:42:46.988Z,101332.36
2019-03-18T18:45:15.273Z,101335.42
2019-03-18T18:47:43.558Z,101336.73
2019-03-18T18:50:12.611Z,101345.94
2019-03-18T18:52:40.930Z,101352.70
2019-03-18T18:55:11.468Z,101346.80
2019-03-18T18:57:39.748Z,101352.84
2019-03-18T19:00:17.153Z,101351.37
2019-03-18T19:02:45.445Z,101354.23
2019-03-18T19:05:15.013Z,101360.13
2019-03-18T19:07:43.883Z,101357.16
2019-03-18T19:10:16.385Z,101364.50
2019-03-18T19:12:44.679Z,101370.42
2019-03-18T19:15:38.760Z,101373.82
2019-03-18T19:18:07.396Z,101376.77
2019-03-18T19:20:35.716Z,101379.80
2019-03-18T19:23:04.048Z,101384.41
2019-03-18T19:25:32.660Z,101382.95
2019-03-18T19:28:01.080Z,101387.02
2019-03-18T19:30:29.727Z,101379.70
2019-03-18T19:32:58.052Z,101383.48
2019-03-18T19:35:28.626Z,101385.07
2019-03-18T19:37:56.385Z,101390.47
2019-03-18T19:40:25.234Z,101399.73
2019-03-18T19:42:53.544Z,101414.95
2019-03-18T19:45:21.948Z,101414.47
2019-03-18T19:47:53.035Z,101420.06
2019-03-18T19:50:21.448Z,101421.76
2019-03-18T19:52:49.799Z,101422.32
2019-03-18T19:55:18.138Z,101420.02
2019-03-18T19:57:46.428Z,101427.59
2019-03-18T20:00:30.786Z,101434.69
2019-03-18T20:02:59.094Z,101437.41
2019-03-18T20:05:27.407Z,101440.98
2019-03-18T20:07:55.709Z,101441.17
2019-03-18T20:10:24.045Z,101446.68
2019-03-18T20:12:52.341Z,101448.66
2019-03-18T20:15:20.847Z,101449.09
2019-03-18T20:17:49.297Z,101445.92
2019-03-18T20:20:24.312Z,101444.53
2019-03-18T20:22:52.633Z,101451.48
2019-03-18T20:25:20.933Z,101455.32
2019-03-18T20:27:49.572Z,101460.27
2019-03-18T20:30:19.897Z,101461.69
2019-03-18T20:32:48.293Z,101468.13
2019-03-18T20:35:26.374Z,101477.09
2019-03-18T20:37:54.698Z,101476.92
2019-03-18T20:40:23.067Z,101473.20
2019-03-18T20:42:51.472Z,101485.02
2019-03-18T20:45:24.719Z,101483.72
2019-03-18T20:47:53.062Z,101491.00
2019-03-18T20:50:22.599Z,101493.89
2019-03-18T20:52:50.910Z,101498.17
2019-03-18T20:55:19.448Z,101503.76
2019-03-18T20:57:47.797Z,101503.95
2019-03-18T21:00:17.870Z,101502.11
2019-03-18T21:02:46.219Z,101509.38
2019-03-18T21:05:14.683Z,101513.66
2019-03-18T21:07:43.000Z,101510.70
2019-03-18T21:10:13.241Z,101516.00
2019-03-18T21:12:41.672Z,101514.70
2019-03-18T21:15:12.004Z,101513.14
2019-03-18T21:17:40.301Z,101515.45
2019-03-18T21:20:17.737Z,101522.16
2019-03-18T21:22:46.104Z,101528.50
2019-03-18T21:25:14.547Z,101532.67
2019-03-18T21:27:42.841Z,101538.90
2019-03-18T21:30:17.209Z,101536.20
2019-03-18T21:32:45.488Z,101542.54
2019-03-18T21:35:13.872Z,101543.44
2019-03-18T21:37:42.441Z,101545.02
2019-03-18T21:40:18.721Z,101547.50
2019-03-18T21:42:47.131Z,101555.43
2019-03-18T21:45:19.581Z,101561.66
2019-03-18T21:47:48.246Z,101560.99
2019-03-18T21:50:17.055Z,101565.55
2019-03-18T21:52:45.735Z,101569.43
2019-03-18T21:55:14.855Z,101571.08
2019-03-18T21:57:43.313Z,101570.88
2019-03-18T22:00:24.127Z,101563.40
2019-03-18T22:02:52.515Z,101567.94
2019-03-18T22:05:20.810Z,101568.01
2019-03-18T22:07:49.122Z,101566.34
2019-03-18T22:10:23.252Z,101566.52
2019-03-18T22:12:51.893Z,101570.22
2019-03-18T22:15:20.265Z,101579.20
2019-03-18T22:17:48.569Z,101575.86
2019-03-18T22:20:17.832Z,101570.05
2019-03-18T22:22:46.198Z,101569.84
2019-03-18T22:25:15.363Z,101573.81
2019-03-18T22:27:43.639Z,101580.89
2019-03-18T22:30:15.114Z,101579.75
2019-03-18T22:32:43.690Z,101578.15
2019-03-18T22:35:12.795Z,101575.03
2019-03-18T22:37:41.115Z,101574.83
2019-03-18T22:40:12.529Z,101577.06
2019-03-18T22:42:40.824Z,101581.03
2019-03-18T22:45:11.835Z,101589.84
2019-03-18T22:47:40.322Z,101596.28
2019-03-18T22:50:12.660Z,101600.88
2019-03-18T22:52:41.215Z,101596.30
2019-03-18T22:55:11.381Z,101594.33
2019-03-18T22:57:39.729Z,101592.65
2019-03-18T23:00:25.932Z,101599.69
2019-03-18T23:02:54.321Z,101601.39
2019-03-18T23:05:22.612Z,101597.64
2019-03-18T23:07:50.924Z,101602.39
2019-03-18T23:10:19.227Z,101601.70
2019-03-18T23:12:47.643Z,101605.77
2019-03-18T23:15:15.998Z,101611.66
2019-03-18T23:17:44.317Z,101607.54
2019-03-18T23:20:13.036Z,101604.26
2019-03-18T23:22:41.340Z,101610.39
2019-03-18T23:25:09.820Z,101617.52
2019-03-18T23:27:38.155Z,101618.04
2019-03-18T23:30:13.933Z,101620.02
2019-03-18T23:32:42.687Z,101625.69
2019-03-18T23:35:11.760Z,101624.02
2019-03-18T23:37:40.076Z,101631.14
2019-03-18T23:40:11.002Z,101629.69
2019-03-18T23:42:39.313Z,101628.53
2019-03-18T23:45:08.778Z,101623.42
2019-03-18T23:47:37.381Z,101635.04
2019-03-18T23:50:08.546Z,101632.99
2019-03-18T23:52:36.862Z,101637.42
2019-03-18T23:55:18.286Z,101631.07
2019-03-18T23:57:37.915Z,101630.02
